Time;durP1;ratioP1;P1;durP2;ratioP2;P2;SDS_P1;SDS_P2;PMS_P1;PMS_P2;Temp;Humidity;BMP_temperature;BMP_pressure;BME280_temperature;BME280_humidity;BME280_pressure;Samples;Min_cycle;Max_cycle;Signal;HPM_P1;HPM_P2
2023/03/14 00:00:48;;;;;;;22.00;4.60;;;10.20;99.90;;;;;;5070143;28;20395;-68
2023/03/14 00:03:14;;;;;;;19.33;4.15;;;10.30;99.90;;;;;;5068489;28;20113;-68
2023/03/14 00:05:40;;;;;;;23.02;4.18;;;10.30;99.90;;;;;;5053859;28;20056;-68
2023/03/14 00:08:05;;;;;;;16.83;3.55;;;10.40;99.90;;;;;;5064526;28;20055;-68
2023/03/14 00:10:31;;;;;;;22.70;4.22;;;10.30;99.90;;;;;;5070755;28;20057;-68
2023/03/14 00:12:56;;;;;;;22.55;4.25;;;10.40;99.90;;;;;;5068751;28;20486;-68
2023/03/14 00:15:22;;;;;;;19.13;4.25;;;10.50;99.90;;;;;;5068525;28;20041;-68
2023/03/14 00:17:48;;;;;;;20.10;4.28;;;10.70;99.90;;;;;;5086963;28;20098;-67
2023/03/14 00:20:13;;;;;;;17.80;3.70;;;10.70;99.90;;;;;;5077483;28;20055;-68
2023/03/14 00:22:40;;;;;;;16.80;3.90;;;10.60;99.90;;;;;;5071987;28;20037;-68
2023/03/14 00:25:07;;;;;;;17.10;3.60;;;10.70;99.90;;;;;;5068632;28;20051;-68
2023/03/14 00:27:34;;;;;;;11.85;3.20;;;10.60;99.90;;;;;;5071058;28;20044;-68
2023/03/14 00:30:00;;;;;;;16.50;3.85;;;10.60;99.90;;;;;;5079262;28;20070;-68
2023/03/14 00:32:25;;;;;;;19.70;4.72;;;10.60;99.90;;;;;;5055796;28;20048;-68
2023/03/14 00:34:51;;;;;;;21.27;4.18;;;10.50;99.90;;;;;;5082723;28;20127;-68
2023/03/14 00:37:17;;;;;;;13.75;3.58;;;10.60;99.90;;;;;;5088156;28;20089;-67
2023/03/14 00:39:43;;;;;;;20.77;3.65;;;10.50;99.90;;;;;;5088898;28;20040;-68
2023/03/14 00:42:08;;;;;;;17.65;3.60;;;10.50;99.90;;;;;;5069173;28;20408;-68
2023/03/14 00:44:34;;;;;;;19.85;3.45;;;10.50;99.90;;;;;;5071753;28;20044;-68
2023/03/14 00:47:00;;;;;;;18.48;3.85;;;10.50;99.90;;;;;;5081375;28;20051;-69
2023/03/14 00:49:25;;;;;;;18.60;3.38;;;10.50;99.90;;;;;;5068268;28;20044;-69
2023/03/14 00:51:51;;;;;;;19.08;3.58;;;10.50;99.90;;;;;;5082603;28;20040;-69
2023/03/14 00:54:18;;;;;;;17.23;3.65;;;10.60;99.90;;;;;;5088517;28;20506;-69
2023/03/14 00:56:44;;;;;;;14.05;3.72;;;10.50;99.90;;;;;;5085041;28;20149;-69
2023/03/14 00:59:10;;;;;;;17.70;3.45;;;10.50;99.90;;;;;;5078877;28;20510;-69
2023/03/14 01:01:35;;;;;;;14.13;3.65;;;10.60;99.90;;;;;;5080851;28;20046;-68
2023/03/14 01:04:01;;;;;;;21.08;4.05;;;10.40;99.90;;;;;;5091713;28;20063;-68
2023/03/14 01:06:28;;;;;;;16.83;3.40;;;10.50;99.90;;;;;;5086540;28;20117;-69
2023/03/14 01:08:55;;;;;;;16.50;3.35;;;10.60;99.90;;;;;;5055007;28;20483;-68
2023/03/14 01:11:32;;;;;;;19.40;3.88;;;10.60;99.90;;;;;;5074513;28;20032;-69
2023/03/14 01:13:59;;;;;;;20.15;3.65;;;10.50;99.90;;;;;;5071438;28;20488;-68
2023/03/14 01:16:27;;;;;;;16.58;3.65;;;10.60;99.90;;;;;;5081589;28;20475;-68
2023/03/14 01:18:53;;;;;;;13.55;2.92;;;10.60;99.90;;;;;;5090026;28;20059;-68
2023/03/14 01:21:25;;;;;;;16.25;3.75;;;10.70;99.90;;;;;;5081567;28;20052;-70
2023/03/14 01:23:52;;;;;;;13.80;2.88;;;10.80;99.90;;;;;;5085085;28;20135;-68
2023/03/14 01:26:20;;;;;;;13.80;3.33;;;10.90;99.90;;;;;;5091675;28;20039;-68
2023/03/14 01:28:47;;;;;;;19.02;3.22;;;10.90;99.90;;;;;;5087150;28;20041;-68
2023/03/14 01:31:13;;;;;;;19.90;3.25;;;11.00;99.90;;;;;;5069010;28;20464;-69
2023/03/14 01:33:40;;;;;;;12.35;3.20;;;11.00;99.90;;;;;;5064194;28;20063;-68
2023/03/14 01:36:07;;;;;;;15.32;2.78;;;11.00;99.90;;;;;;5092266;28;20406;-68
2023/03/14 01:38:34;;;;;;;12.38;2.97;;;11.10;99.90;;;;;;5081909;28;20153;-68
2023/03/14 01:41:01;;;;;;;12.30;3.28;;;11.00;99.90;;;;;;5078405;28;20135;-68
2023/03/14 01:43:27;;;;;;;14.68;2.90;;;11.00;99.90;;;;;;5085042;28;20048;-69
2023/03/14 01:46:05;;;;;;;12.75;2.92;;;11.10;99.90;;;;;;5072836;28;20027;-69
2023/03/14 01:49:05;;;;;;;18.08;3.08;;;11.10;99.90;;;;;;5076578;28;20557;-69
2023/03/14 01:51:45;;;;;;;14.82;2.70;;;11.00;99.90;;;;;;5065257;28;20055;-69
2023/03/14 01:54:32;;;;;;;13.05;2.83;;;11.10;99.90;;;;;;5071646;28;20045;-69
2023/03/14 01:57:06;;;;;;;15.68;2.72;;;11.00;99.90;;;;;;5074861;28;20400;-69
2023/03/14 01:59:34;;;;;;;13.30;2.72;;;11.10;99.90;;;;;;5090258;28;20055;-69
2023/03/14 02:02:01;;;;;;;13.38;2.40;;;11.00;99.90;;;;;;5080887;28;20048;-68
2023/03/14 02:04:31;;;;;;;14.15;2.92;;;10.90;99.90;;;;;;5090362;28;20056;-68
2023/03/14 02:07:07;;;;;;;15.55;2.90;;;10.90;99.90;;;;;;5084362;28;20049;-68
2023/03/14 02:09:32;;;;;;;15.73;2.50;;;10.90;99.90;;;;;;5085085;28;20082;-68
2023/03/14 02:11:58;;;;;;;12.43;2.63;;;10.80;99.90;;;;;;5073591;28;20095;-69
2023/03/14 02:14:34;;;;;;;17.40;2.95;;;10.80;99.90;;;;;;5057914;28;20037;-69
2023/03/14 02:17:02;;;;;;;12.50;2.67;;;10.70;99.90;;;;;;5082183;28;20119;-69
2023/03/14 02:20:12;;;;;;;13.35;2.50;;;10.50;99.90;;;;;;5083905;28;20040;-69
2023/03/14 02:22:41;;;;;;;8.57;2.10;;;10.60;99.90;;;;;;5078257;28;20434;-69
2023/03/14 02:25:22;;;;;;;12.50;2.13;;;10.60;99.90;;;;;;5053879;28;20052;-69
2023/03/14 02:27:48;;;;;;;10.35;2.45;;;10.40;99.90;;;;;;5070164;28;20052;-69
2023/03/14 02:30:23;;;;;;;10.98;2.13;;;10.40;99.90;;;;;;5086760;28;20051;-69
2023/03/14 02:32:55;;;;;;;15.35;2.63;;;10.40;99.90;;;;;;5082579;28;20044;-68
2023/03/14 02:35:27;;;;;;;9.70;2.10;;;10.40;99.90;;;;;;5081147;28;20079;-68
2023/03/14 02:38:00;;;;;;;9.00;2.10;;;10.40;99.90;;;;;;5089433;28;20036;-68
2023/03/14 02:40:26;;;;;;;10.65;2.40;;;10.40;99.90;;;;;;5088055;28;20127;-68
2023/03/14 02:42:51;;;;;;;11.45;2.10;;;10.40;99.90;;;;;;5081548;28;20115;-69
2023/03/14 02:45:17;;;;;;;9.07;2.15;;;10.40;99.90;;;;;;5090278;28;20102;-69
2023/03/14 02:47:52;;;;;;;10.68;2.47;;;10.40;99.90;;;;;;5083583;28;20047;-69
2023/03/14 02:50:22;;;;;;;11.77;2.35;;;10.50;99.90;;;;;;5091680;28;20118;-69
2023/03/14 02:52:48;;;;;;;11.10;2.15;;;10.40;99.90;;;;;;5087139;28;20429;-69
2023/03/14 02:55:14;;;;;;;8.93;2.08;;;10.30;99.90;;;;;;5069839;28;20044;-69
2023/03/14 02:57:39;;;;;;;9.23;2.25;;;10.40;99.90;;;;;;5053901;28;20032;-69
2023/03/14 03:00:06;;;;;;;11.38;2.50;;;10.30;99.90;;;;;;5072697;28;20376;-69
2023/03/14 03:02:32;;;;;;;10.10;2.05;;;10.10;99.90;;;;;;5088545;28;20123;-68
2023/03/14 03:04:58;;;;;;;8.02;1.85;;;10.30;99.90;;;;;;5069711;28;20134;-68
2023/03/14 03:07:24;;;;;;;8.95;2.25;;;10.00;99.90;;;;;;5068799;28;20084;-68
2023/03/14 03:09:50;;;;;;;9.75;2.03;;;10.00;99.90;;;;;;5089220;28;20054;-68
2023/03/14 03:12:16;;;;;;;12.90;2.47;;;10.10;99.90;;;;;;5075326;28;20122;-68
2023/03/14 03:14:41;;;;;;;10.55;2.65;;;10.10;99.90;;;;;;5075296;28;20050;-68
2023/03/14 03:17:07;;;;;;;10.63;2.40;;;9.90;99.90;;;;;;5072447;28;20509;-69
2023/03/14 03:19:34;;;;;;;9.80;2.55;;;10.00;99.90;;;;;;5080897;28;20047;-69
2023/03/14 03:21:59;;;;;;;;;;;10.10;99.90;;;;;;5064169;28;20438;-69
2023/03/14 03:24:26;;;;;;;10.80;3.17;;;9.70;99.90;;;;;;5082608;28;19919;-69
2023/03/14 03:26:52;;;;;;;8.63;2.60;;;10.20;99.90;;;;;;5075953;28;20147;-69
2023/03/14 03:29:18;;;;;;;9.30;2.10;;;9.90;99.90;;;;;;5083081;28;20438;-69
2023/03/14 03:31:45;;;;;;;8.15;2.10;;;10.30;99.90;;;;;;5085308;28;20067;-68
2023/03/14 03:34:11;;;;;;;11.63;2.53;;;10.20;99.90;;;;;;5081654;28;20131;-68
2023/03/14 03:36:37;;;;;;;11.25;2.40;;;9.50;99.90;;;;;;5085634;28;20048;-68
2023/03/14 03:39:03;;;;;;;7.63;2.17;;;10.30;99.90;;;;;;5078304;28;20518;-68
2023/03/14 03:41:29;;;;;;;9.13;2.25;;;9.80;99.90;;;;;;5071018;28;20048;-68
2023/03/14 03:43:56;;;;;;;9.65;2.40;;;9.70;99.90;;;;;;5076293;28;20066;-69
2023/03/14 03:46:21;;;;;;;10.00;2.60;;;9.60;99.90;;;;;;5089936;28;20043;-68
2023/03/14 03:48:47;;;;;;;16.38;2.72;;;10.50;99.90;;;;;;5087646;28;20101;-68
2023/03/14 03:51:14;;;;;;;10.73;2.75;;;9.80;99.90;;;;;;5089403;28;20036;-69
2023/03/14 03:53:41;;;;;;;15.77;3.20;;;10.50;99.90;;;;;;5079707;28;20462;-68
2023/03/14 03:56:07;;;;;;;15.02;2.97;;;10.50;99.90;;;;;;5088981;28;20075;-69
2023/03/14 03:58:33;;;;;;;;;;;10.60;99.90;;;;;;5083398;28;20066;-69
2023/03/14 04:00:58;;;;;;;14.82;3.00;;;10.50;99.90;;;;;;5085941;28;19927;-69
2023/03/14 04:03:25;;;;;;;12.75;2.95;;;10.60;99.90;;;;;;5078720;28;20048;-69
2023/03/14 04:06:09;;;;;;;11.75;2.67;;;9.90;99.90;;;;;;5074130;28;20130;-69
2023/03/14 04:08:35;;;;;;;15.27;3.20;;;9.80;99.90;;;;;;5087667;28;20135;-69
2023/03/14 04:11:02;;;;;;;14.10;2.83;;;9.90;99.90;;;;;;5052201;28;20163;-69
2023/03/14 04:13:28;;;;;;;13.63;3.28;;;10.10;99.90;;;;;;5052221;28;20044;-69
2023/03/14 04:15:54;;;;;;;16.35;3.25;;;10.20;99.90;;;;;;5088383;28;20070;-68
2023/03/14 04:18:21;;;;;;;14.13;3.55;;;10.00;99.90;;;;;;5079581;28;20174;-69
2023/03/14 04:20:50;;;;;;;;;;;10.40;99.90;;;;;;5087137;28;20046;-69
2023/03/14 04:23:16;;;;;;;14.02;3.60;;;9.90;99.90;;;;;;5086584;28;20006;-69
2023/03/14 04:25:42;;;;;;;15.15;3.28;;;10.20;99.90;;;;;;5081051;28;20135;-69
2023/03/14 04:28:07;;;;;;;10.63;3.05;;;9.70;99.90;;;;;;5070207;28;20036;-68
2023/03/14 04:30:33;;;;;;;15.30;3.47;;;9.90;99.90;;;;;;5052824;28;20051;-68
2023/03/14 04:32:59;;;;;;;12.25;3.10;;;10.50;99.90;;;;;;5058426;28;20406;-68
2023/03/14 04:35:24;;;;;;;10.68;3.60;;;10.50;99.90;;;;;;5076115;28;20064;-68
2023/03/14 04:37:51;;;;;;;13.27;3.42;;;9.70;99.90;;;;;;5075784;28;20047;-68
2023/03/14 04:40:18;;;;;;;12.50;3.97;;;10.60;99.90;;;;;;5073612;28;20036;-68
2023/03/14 04:42:43;;;;;;;;;;;9.70;99.90;;;;;;5087824;28;20083;-68
2023/03/14 04:45:10;;;;;;;14.93;3.17;;;9.40;99.90;;;;;;5081395;28;19955;-69
2023/03/14 04:47:35;;;;;;;15.05;4.05;;;9.30;99.90;;;;;;5075574;28;20040;-68
2023/03/14 04:50:01;;;;;;;14.95;4.03;;;9.70;99.90;;;;;;5084135;28;20563;-68
2023/03/14 04:52:27;;;;;;;8.85;3.10;;;10.40;99.90;;;;;;5079918;28;20043;-69
2023/03/14 04:54:53;;;;;;;14.00;4.53;;;9.20;99.90;;;;;;5068952;28;20487;-69
2023/03/14 04:57:19;;;;;;;12.43;4.30;;;10.50;99.90;;;;;;5081265;28;20072;-69
2023/03/14 04:59:44;;;;;;;9.85;3.95;;;11.10;99.90;;;;;;5088342;28;20047;-69
2023/03/14 05:02:10;;;;;;;14.20;3.85;;;10.10;99.90;;;;;;5071703;28;20044;-70
2023/03/14 05:04:36;;;;;;;9.27;3.92;;;11.10;99.90;;;;;;5088503;28;20056;-70
2023/03/14 05:07:01;;;;;;;12.30;4.45;;;9.60;99.90;;;;;;5071614;28;20113;-70
2023/03/14 05:09:27;;;;;;;11.30;4.47;;;10.50;99.90;;;;;;5072132;28;20131;-69
2023/03/14 05:11:53;;;;;;;10.13;4.70;;;11.00;99.90;;;;;;5075222;28;20073;-70
2023/03/14 05:14:19;;;;;;;9.63;4.00;;;9.90;99.90;;;;;;5086301;28;20058;-70
2023/03/14 05:16:44;;;;;;;9.15;3.63;;;11.20;99.90;;;;;;5072673;28;20472;-70
2023/03/14 05:19:10;;;;;;;11.35;3.95;;;9.20;99.90;;;;;;5071552;28;20045;-70
2023/03/14 05:21:36;;;;;;;11.35;4.18;;;11.80;99.90;;;;;;5087743;28;20085;-70
2023/03/14 05:24:02;;;;;;;8.52;3.88;;;11.60;99.90;;;;;;5074205;28;20181;-71
2023/03/14 05:26:28;;;;;;;7.57;3.88;;;11.20;99.90;;;;;;5073916;28;20051;-71
2023/03/14 05:28:53;;;;;;;11.75;4.60;;;10.20;99.90;;;;;;5089407;28;20040;-70
2023/03/14 05:31:19;;;;;;;10.98;3.97;;;11.80;99.90;;;;;;5077144;28;20037;-71
2023/03/14 05:33:45;;;;;;;10.00;3.92;;;11.80;99.90;;;;;;5077478;28;20044;-71
2023/03/14 05:36:11;;;;;;;8.27;4.05;;;11.70;99.90;;;;;;5075077;28;20190;-71
2023/03/14 05:38:36;;;;;;;11.13;4.15;;;9.40;99.90;;;;;;5073018;28;20047;-68
2023/03/14 05:41:02;;;;;;;8.02;3.70;;;11.60;99.90;;;;;;5055099;28;20063;-71
2023/03/14 05:43:28;;;;;;;8.88;3.58;;;10.60;99.90;;;;;;5055131;28;20040;-70
2023/03/14 05:45:54;;;;;;;8.90;3.58;;;10.60;99.90;;;;;;5066647;28;20041;-70
2023/03/14 05:48:21;;;;;;;10.38;3.60;;;10.00;99.90;;;;;;5082962;28;20152;-70
2023/03/14 05:50:47;;;;;;;6.78;3.42;;;12.00;99.90;;;;;;5086639;28;20621;-70
2023/03/14 05:53:13;;;;;;;7.53;3.13;;;11.60;99.90;;;;;;5081897;28;20134;-70
2023/03/14 05:55:39;;;;;;;9.13;3.50;;;9.30;99.90;;;;;;5061409;28;20399;-70
2023/03/14 05:58:05;;;;;;;6.35;3.20;;;12.10;99.90;;;;;;5079976;28;20170;-70
2023/03/14 06:00:31;;;;;;;11.32;3.40;;;9.50;99.90;;;;;;5074944;28;20133;-69
2023/03/14 06:02:56;;;;;;;6.70;2.95;;;12.20;99.90;;;;;;5080497;28;20041;-70
2023/03/14 06:05:22;;;;;;;5.72;2.60;;;11.20;99.90;;;;;;5088791;28;20086;-69
2023/03/14 06:07:47;;;;;;;6.78;2.75;;;9.30;99.90;;;;;;5072317;28;20054;-69
2023/03/14 06:10:13;;;;;;;3.25;1.88;;;12.20;99.90;;;;;;5074437;28;20048;-70
2023/03/14 06:12:39;;;;;;;4.47;2.20;;;11.80;99.90;;;;;;5074373;28;20481;-70
2023/03/14 06:15:05;;;;;;;5.07;2.70;;;9.70;99.90;;;;;;5072579;28;20044;-69
2023/03/14 06:17:31;;;;;;;4.22;2.40;;;9.90;99.90;;;;;;5059190;28;20497;-69
2023/03/14 06:19:56;;;;;;;4.55;2.20;;;9.40;99.90;;;;;;5078857;28;20036;-70
2023/03/14 06:22:22;;;;;;;4.15;2.10;;;10.80;99.90;;;;;;5068117;28;20410;-70
2023/03/14 06:24:48;;;;;;;7.57;2.90;;;9.70;99.90;;;;;;5089835;28;20071;-69
2023/03/14 06:27:13;;;;;;;3.85;2.17;;;11.20;99.90;;;;;;5078900;28;20055;-69
2023/03/14 06:29:39;;;;;;;4.28;1.08;;;9.20;99.90;;;;;;5070216;28;20593;-68
2023/03/14 06:32:05;;;;;;;4.20;1.05;;;11.60;99.90;;;;;;5080387;28;20055;-68
2023/03/14 06:34:31;;;;;;;4.80;0.82;;;9.50;99.90;;;;;;5090404;28;20066;-67
2023/03/14 06:36:56;;;;;;;2.63;0.70;;;10.50;99.90;;;;;;5078128;28;20541;-67
2023/03/14 06:39:22;;;;;;;3.70;0.70;;;10.30;99.90;;;;;;5054135;28;20040;-67
2023/03/14 06:41:48;;;;;;;7.82;1.10;;;9.30;99.90;;;;;;5072050;28;20369;-68
2023/03/14 06:44:13;;;;;;;6.35;1.05;;;7.00;99.90;;;;;;5067679;28;20132;-67
2023/03/14 06:46:39;;;;;;;11.98;1.90;;;10.20;99.90;;;;;;5074395;28;20040;-67
2023/03/14 06:49:05;;;;;;;12.02;1.70;;;9.20;99.90;;;;;;5071973;28;20048;-68
2023/03/14 06:51:30;;;;;;;10.98;1.40;;;8.80;99.90;;;;;;5071730;28;20036;-67
2023/03/14 06:53:56;;;;;;;14.07;2.08;;;7.20;99.90;;;;;;5069010;28;20068;-68
2023/03/14 06:56:22;;;;;;;16.52;2.35;;;6.90;99.90;;;;;;5068832;28;20523;-67
2023/03/14 06:58:47;;;;;;;10.65;1.52;;;8.80;99.90;;;;;;5075282;28;20044;-67
2023/03/14 07:01:24;;;;;;;10.73;1.40;;;10.10;99.90;;;;;;5071336;28;20110;-68
2023/03/14 07:03:50;;;;;;;11.05;1.25;;;4.90;99.90;;;;;;5074987;28;20043;-67
2023/03/14 07:06:15;;;;;;;7.95;1.42;;;3.50;99.90;;;;;;5073977;28;20044;-67
2023/03/14 07:08:41;;;;;;;10.63;1.23;;;4.80;99.90;;;;;;5051660;28;20481;-67
2023/03/14 07:11:09;;;;;;;8.90;1.20;;;7.90;99.90;;;;;;5070188;28;20052;-67
2023/03/14 07:13:35;;;;;;;9.50;1.15;;;11.40;99.90;;;;;;5060632;28;20133;-67
2023/03/14 07:16:01;;;;;;;4.18;0.77;;;6.00;99.90;;;;;;5068238;28;20084;-67
2023/03/14 07:18:26;;;;;;;5.88;1.02;;;12.20;99.90;;;;;;5071972;28;20190;-66
2023/03/14 07:20:52;;;;;;;3.55;0.60;;;6.30;99.90;;;;;;5073102;28;20040;-67
2023/03/14 07:23:18;;;;;;;2.72;0.50;;;4.00;99.90;;;;;;5072233;28;20119;-67
2023/03/14 07:25:43;;;;;;;6.60;0.63;;;5.00;99.90;;;;;;5058430;28;20398;-66
2023/03/14 07:28:09;;;;;;;3.20;0.70;;;11.90;99.90;;;;;;5053329;28;20045;-67
2023/03/14 07:30:35;;;;;;;2.67;0.40;;;10.30;99.90;;;;;;5072356;28;20041;-67
2023/03/14 07:33:00;;;;;;;5.57;1.45;;;11.20;99.90;;;;;;5058915;28;20345;-68
2023/03/14 07:35:26;;;;;;;3.95;0.70;;;11.50;99.90;;;;;;5071537;28;20083;-68
2023/03/14 07:37:52;;;;;;;2.92;0.70;;;8.20;99.90;;;;;;5072553;28;20048;-68
2023/03/14 07:40:17;;;;;;;3.80;0.50;;;3.80;99.90;;;;;;5073837;28;20418;-67
2023/03/14 07:42:43;;;;;;;5.28;0.40;;;9.40;99.90;;;;;;5073930;28;20646;-67
2023/03/14 07:45:10;;;;;;;4.82;0.75;;;4.10;99.90;;;;;;5052822;28;20141;-66
2023/03/14 07:47:36;;;;;;;5.50;0.60;;;5.20;99.90;;;;;;5072268;28;20523;-67
2023/03/14 07:50:03;;;;;;;3.53;0.45;;;10.40;99.90;;;;;;5055706;28;20044;-67
2023/03/14 07:52:29;;;;;;;3.33;0.40;;;10.60;99.90;;;;;;5070124;28;20178;-67
2023/03/14 07:54:54;;;;;;;3.92;0.47;;;10.80;99.90;;;;;;5088215;28;20143;-67
2023/03/14 07:57:20;;;;;;;1.98;0.35;;;9.20;99.90;;;;;;5085950;28;20043;-67
2023/03/14 07:59:46;;;;;;;3.97;0.40;;;4.00;99.90;;;;;;5087539;28;20040;-67
2023/03/14 08:02:12;;;;;;;2.08;0.50;;;4.40;99.90;;;;;;5088033;28;20044;-67
2023/03/14 08:04:39;;;;;;;;;;;10.20;99.90;;;;;;5090047;28;20032;-67
2023/03/14 08:07:04;;;;;;;2.42;0.57;;;5.30;99.90;;;;;;5091211;28;20037;-67
2023/03/14 08:09:30;;;;;;;4.47;0.47;;;4.30;99.90;;;;;;5091917;28;20513;-67
2023/03/14 08:11:56;;;;;;;3.90;0.60;;;10.10;99.90;;;;;;5076172;28;20100;-67
2023/03/14 08:14:23;;;;;;;4.45;0.50;;;4.10;99.90;;;;;;5076688;28;20044;-67
2023/03/14 08:16:50;;;;;;;1.60;0.30;;;10.80;99.90;;;;;;5073836;28;20049;-68
2023/03/14 08:19:16;;;;;;;1.67;0.40;;;10.40;99.90;;;;;;5087255;28;20044;-68
2023/03/14 08:21:42;;;;;;;6.60;1.48;;;6.20;99.90;;;;;;5092462;28;20044;-68
2023/03/14 08:24:08;;;;;;;5.13;0.82;;;4.50;99.90;;;;;;5079944;28;20048;-68
2023/03/14 08:26:34;;;;;;;5.50;0.82;;;10.60;99.90;;;;;;5073762;28;20127;-68
2023/03/14 08:28:59;;;;;;;4.60;0.95;;;9.10;99.90;;;;;;5080829;28;20039;-66
2023/03/14 08:31:25;;;;;;;4.32;0.90;;;11.10;99.90;;;;;;5058475;28;20090;-67
2023/03/14 08:33:52;;;;;;;6.63;1.45;;;7.40;99.90;;;;;;5094023;28;20105;-67
2023/03/14 08:36:18;;;;;;;;;;;5.60;99.90;;;;;;5091601;28;20126;-67
2023/03/14 08:38:43;;;;;;;3.97;0.98;;;5.20;99.90;;;;;;5072294;28;20308;-67
2023/03/14 08:41:09;;;;;;;7.72;1.25;;;8.30;99.90;;;;;;5075454;28;20109;-67
2023/03/14 08:43:35;;;;;;;12.07;1.38;;;11.20;99.90;;;;;;5091080;28;20036;-68
2023/03/14 08:46:02;;;;;;;8.30;1.80;;;7.40;99.90;;;;;;5092590;28;20058;-67
2023/03/14 08:48:29;;;;;;;10.23;1.35;;;6.90;99.90;;;;;;5090902;28;20062;-67
2023/03/14 08:51:15;;;;;;;14.15;1.75;;;6.90;99.90;;;;;;5074878;28;20066;-68
2023/03/14 08:53:41;;;;;;;13.77;2.63;;;9.50;99.90;;;;;;5091197;28;20566;-68
2023/03/14 08:56:09;;;;;;;14.43;1.80;;;5.50;99.90;;;;;;5090519;28;20480;-67
2023/03/14 08:58:37;;;;;;;11.05;1.70;;;11.60;99.90;;;;;;5075362;28;20040;-67
2023/03/14 09:01:05;;;;;;;16.50;2.47;;;5.60;99.90;;;;;;5073244;28;20501;-67
2023/03/14 09:03:30;;;;;;;12.70;2.70;;;10.30;99.90;;;;;;5074732;28;20584;-69
2023/03/14 09:06:02;;;;;;;13.82;2.38;;;6.90;99.90;;;;;;5071723;28;20052;-67
2023/03/14 09:08:28;;;;;;;14.18;2.08;;;7.40;99.90;;;;;;5056385;28;20060;-67
2023/03/14 09:10:53;;;;;;;17.67;2.63;;;6.60;99.90;;;;;;5074024;28;20463;-67
2023/03/14 09:13:19;;;;;;;19.33;2.95;;;6.20;99.90;;;;;;5077031;28;20297;-67
2023/03/14 09:15:49;;;;;;;16.60;2.47;;;10.20;99.90;;;;;;5055971;28;20040;-67
2023/03/14 09:18:15;;;;;;;16.08;2.78;;;6.30;99.90;;;;;;5084054;28;20055;-67
2023/03/14 09:20:41;;;;;;;15.88;2.95;;;6.70;99.90;;;;;;5089977;28;20040;-67
2023/03/14 09:23:07;;;;;;;18.77;3.03;;;10.60;99.90;;;;;;5082540;28;20114;-67
2023/03/14 09:25:32;;;;;;;18.33;2.95;;;10.60;99.90;;;;;;5073001;28;20162;-67
2023/03/14 09:27:58;;;;;;;22.80;4.50;;;10.10;99.90;;;;;;5081730;28;20048;-67
2023/03/14 09:30:24;;;;;;;19.00;2.60;;;7.20;99.90;;;;;;5071650;28;20061;-67
2023/03/14 09:32:49;;;;;;;20.85;3.58;;;9.80;99.90;;;;;;5088215;28;20050;-66
2023/03/14 09:35:15;;;;;;;19.42;2.72;;;7.80;99.90;;;;;;5091346;28;20135;-66
2023/03/14 09:37:41;;;;;;;15.23;2.78;;;7.80;99.90;;;;;;5085136;28;20052;-66
2023/03/14 09:40:13;;;;;;;16.17;2.80;;;9.50;99.90;;;;;;5072511;28;20444;-66
2023/03/14 09:42:40;;;;;;;14.13;2.15;;;7.30;99.90;;;;;;5082108;28;20052;-67
2023/03/14 09:45:37;;;;;;;15.13;2.33;;;9.10;99.90;;;;;;5071017;28;20044;-66
2023/03/14 09:48:04;;;;;;;9.35;2.28;;;8.10;99.90;;;;;;5079010;28;20136;-66
2023/03/14 09:50:37;;;;;;;15.70;2.30;;;8.80;99.90;;;;;;5074497;28;20055;-67
2023/03/14 09:53:12;;;;;;;19.48;2.60;;;9.00;99.90;;;;;;5071226;28;20052;-67
2023/03/14 09:55:38;;;;;;;16.52;2.65;;;8.50;99.90;;;;;;5070828;28;20058;-66
2023/03/14 09:58:11;;;;;;;16.75;3.13;;;8.90;99.90;;;;;;5073177;28;20089;-67
2023/03/14 10:00:36;;;;;;;19.02;2.95;;;8.90;99.90;;;;;;5072295;28;20087;-66
2023/03/14 10:03:11;;;;;;;19.00;3.28;;;9.20;99.90;;;;;;5083543;28;20037;-66
2023/03/14 10:05:37;;;;;;;17.80;3.17;;;9.00;99.90;;;;;;5082464;28;20044;-66
2023/03/14 10:08:04;;;;;;;15.18;3.20;;;8.70;99.90;;;;;;5084656;28;20087;-66
2023/03/14 10:10:30;;;;;;;18.52;2.78;;;9.00;99.90;;;;;;5070728;28;20074;-67
2023/03/14 10:13:10;;;;;;;14.57;3.80;;;8.90;99.90;;;;;;5085856;28;20052;-66
2023/03/14 10:15:37;;;;;;;18.15;3.15;;;9.20;99.90;;;;;;5081440;28;20052;-67
2023/03/14 10:18:11;;;;;;;15.40;2.35;;;9.00;99.90;;;;;;5088166;28;20522;-67
2023/03/14 10:20:43;;;;;;;15.88;3.03;;;9.10;99.90;;;;;;5090559;28;20035;-67
2023/03/14 10:23:12;;;;;;;18.25;3.20;;;9.10;99.90;;;;;;5088838;28;20501;-67
2023/03/14 10:25:57;;;;;;;13.80;2.40;;;9.30;99.90;;;;;;5073588;28;20138;-67
2023/03/14 10:28:26;;;;;;;16.10;2.45;;;9.20;99.90;;;;;;5082052;28;20036;-67
2023/03/14 10:30:52;;;;;;;11.13;2.55;;;9.20;99.90;;;;;;5090091;28;20139;-67
2023/03/14 10:33:17;;;;;;;17.08;2.40;;;9.20;99.90;;;;;;5088552;28;20449;-67
2023/03/14 10:35:43;;;;;;;13.23;2.40;;;9.10;99.90;;;;;;5090171;28;20143;-67
2023/03/14 10:38:14;;;;;;;12.65;2.25;;;8.80;99.90;;;;;;5079079;28;20626;-67
2023/03/14 10:40:49;;;;;;;10.77;1.67;;;8.90;99.90;;;;;;5091893;28;20133;-67
2023/03/14 10:43:21;;;;;;;8.23;2.08;;;9.40;99.90;;;;;;5088395;28;20043;-67
2023/03/14 10:45:59;;;;;;;11.60;2.17;;;9.20;99.90;;;;;;5091812;28;20040;-67
2023/03/14 10:48:30;;;;;;;10.32;1.92;;;9.30;99.90;;;;;;5078348;28;20654;-67
2023/03/14 10:51:08;;;;;;;9.27;1.73;;;9.30;99.90;;;;;;5089948;28;20055;-67
2023/03/14 10:54:02;;;;;;;9.55;2.00;;;9.40;99.90;;;;;;5088583;28;20043;-67
2023/03/14 10:56:34;;;;;;;11.05;1.95;;;9.50;99.90;;;;;;5086991;28;20139;-67
2023/03/14 10:59:00;;;;;;;9.27;1.73;;;8.90;99.50;;;;;;5088141;28;20086;-67
2023/03/14 11:01:46;;;;;;;6.85;1.40;;;9.10;99.90;;;;;;5089687;28;20124;-67
2023/03/14 11:04:31;;;;;;;7.97;1.85;;;9.20;99.90;;;;;;5088112;28;20047;-67
2023/03/14 11:07:04;;;;;;;10.25;1.60;;;8.90;92.90;;;;;;5089344;28;20483;-67
2023/03/14 11:09:48;;;;;;;8.60;1.58;;;8.50;69.20;;;;;;5078934;28;20040;-68
2023/03/14 11:12:41;;;;;;;11.73;1.77;;;8.10;55.60;;;;;;5085644;28;20040;-68
2023/03/14 11:15:48;;;;;;;8.57;1.30;;;7.40;40.90;;;;;;5070835;28;20074;-68
2023/03/14 11:18:23;;;;;;;6.68;1.73;;;6.90;42.30;;;;;;5066588;28;20386;-68
2023/03/14 11:21:26;;;;;;;10.63;1.58;;;6.70;29.80;;;;;;5072421;28;20052;-69
2023/03/14 11:24:41;;;;;;;4.95;1.10;;;6.60;17.10;;;;;;5073255;28;20047;-68
2023/03/14 11:27:12;;;;;;;6.95;1.13;;;6.50;2.20;;;;;;5076282;28;20055;-68
2023/03/14 11:29:48;;;;;;;5.13;0.95;;;6.90;1.00;;;;;;5077140;28;20070;-68
2023/03/14 11:32:49;;;;;;;5.50;1.30;;;7.20;1.00;;;;;;5078958;28;20047;-67
2023/03/14 11:35:58;;;;;;;5.72;1.10;;;7.70;1.00;;;;;;5056872;28;20045;-67
2023/03/14 11:38:34;;;;;;;7.13;1.52;;;8.10;1.00;;;;;;5068092;28;20048;-68
2023/03/14 11:41:00;;;;;;;6.10;1.15;;;8.10;1.00;;;;;;5082938;28;20107;-67
2023/03/14 11:43:30;;;;;;;7.05;1.15;;;8.10;1.00;;;;;;5078671;28;20123;-67
2023/03/14 11:46:08;;;;;;;4.75;1.00;;;7.80;1.00;;;;;;5075705;28;20090;-67
2023/03/14 11:48:55;;;;;;;7.20;1.20;;;7.50;1.00;;;;;;5074780;28;20391;-67
2023/03/14 11:51:28;;;;;;;4.80;1.38;;;7.70;1.00;;;;;;5071983;28;20051;-67
2023/03/14 11:53:57;;;;;;;5.70;1.48;;;7.70;1.00;;;;;;5075312;28;20048;-67
2023/03/14 11:56:45;;;;;;;5.10;1.02;;;8.00;1.00;;;;;;5066036;28;20143;-67
2023/03/14 11:59:41;;;;;;;8.65;1.58;;;8.10;1.00;;;;;;5078208;28;20048;-67
2023/03/14 12:02:12;;;;;;;9.02;1.45;;;8.00;1.00;;;;;;5072515;28;20056;-67
2023/03/14 12:04:51;;;;;;;8.75;1.70;;;7.80;1.00;;;;;;5074934;28;20044;-67
2023/03/14 12:07:29;;;;;;;7.18;1.30;;;7.90;1.00;;;;;;5089180;28;20071;-67
2023/03/14 12:09:55;;;;;;;8.50;1.67;;;7.50;1.00;;;;;;5074672;28;20059;-67
2023/03/14 12:12:25;;;;;;;6.70;1.48;;;7.40;1.00;;;;;;5059126;28;20097;-67
2023/03/14 12:15:00;;;;;;;7.53;1.70;;;7.40;1.00;;;;;;5071689;28;20558;-67
2023/03/14 12:17:38;;;;;;;8.48;1.33;;;7.30;1.00;;;;;;5075007;28;20035;-67
2023/03/14 12:20:22;;;;;;;9.77;1.90;;;7.20;1.00;;;;;;5073297;28;20037;-66
2023/03/14 12:23:04;;;;;;;7.30;1.95;;;7.10;1.00;;;;;;5076653;28;20041;-67
2023/03/14 12:25:34;;;;;;;9.35;1.85;;;7.10;1.00;;;;;;5074318;28;20056;-67
2023/03/14 12:27:59;;;;;;;6.47;1.77;;;7.00;1.00;;;;;;5059334;28;20476;-67
2023/03/14 12:30:41;;;;;;;8.07;2.10;;;7.10;1.00;;;;;;5077784;28;20087;-67
2023/03/14 12:33:10;;;;;;;8.55;1.70;;;7.20;1.00;;;;;;5076866;28;20286;-67
2023/03/14 12:35:38;;;;;;;8.23;1.77;;;7.40;1.00;;;;;;5075750;28;20061;-67
2023/03/14 12:38:18;;;;;;;11.38;1.70;;;7.20;1.00;;;;;;5073505;28;20076;-67
2023/03/14 12:41:21;;;;;;;5.90;1.45;;;7.10;1.00;;;;;;5065026;28;20042;-67
2023/03/14 12:43:47;;;;;;;6.60;1.38;;;7.10;1.00;;;;;;5069850;28;20127;-66
2023/03/14 12:46:21;;;;;;;6.85;1.90;;;6.80;1.00;;;;;;5078026;28;20135;-67
2023/03/14 12:49:05;;;;;;;9.73;1.90;;;7.00;1.00;;;;;;5069044;28;20156;-67
2023/03/14 12:51:40;;;;;;;7.47;1.60;;;7.30;6.60;;;;;;5075902;28;20067;-67
2023/03/14 12:54:44;;;;;;;7.53;1.60;;;7.40;1.00;;;;;;5073980;28;20483;-67
2023/03/14 12:57:28;;;;;;;8.00;1.55;;;7.20;1.00;;;;;;5061760;28;20411;-68
2023/03/14 12:59:58;;;;;;;12.52;2.22;;;7.00;1.00;;;;;;5077897;28;20116;-68